createdAt,value
2019-03-15T15:42:10.853Z,15.60
2019-03-15T15:44:39.763Z,15.30
2019-03-15T15:47:07.791Z,14.03
2019-03-15T15:49:36.469Z,14.70
2019-03-15T15:52:04.360Z,15.17
2019-03-15T15:54:32.410Z,14.77
2019-03-15T15:57:00.470Z,14.20
2019-03-15T15:59:28.550Z,14.13
2019-03-15T16:01:56.250Z,13.20
2019-03-15T16:04:24.220Z,13.90
2019-03-15T16:06:52.445Z,13.30
2019-03-15T16:09:20.130Z,12.67
2019-03-15T16:11:48.070Z,13.80
2019-03-15T16:14:15.792Z,13.33
2019-03-15T16:16:44.370Z,12.47
2019-03-15T16:19:13.091Z,12.77
2019-03-15T16:21:40.818Z,13.00
2019-03-15T16:24:09.893Z,12.10
2019-03-15T16:26:38.000Z,12.27
2019-03-15T16:29:05.638Z,12.33
2019-03-15T16:31:33.521Z,11.83
2019-03-15T16:34:03.818Z,12.37
2019-03-15T16:36:31.690Z,12.05
2019-03-15T16:38:59.548Z,11.80
2019-03-15T16:41:27.870Z,11.90
2019-03-15T16:43:56.485Z,11.03
2019-03-15T16:46:24.571Z,11.67
2019-03-15T16:48:52.566Z,11.60
2019-03-15T16:51:20.920Z,11.40
2019-03-15T16:53:49.550Z,11.63
2019-03-15T16:56:20.167Z,11.27
2019-03-15T16:58:48.874Z,11.00
2019-03-15T17:01:16.727Z,10.80
2019-03-15T17:03:44.762Z,10.30
2019-03-15T17:06:13.475Z,10.63
2019-03-15T17:08:41.622Z,11.17
2019-03-15T17:11:09.876Z,10.30
2019-03-15T17:13:37.850Z,11.00
2019-03-15T17:16:06.109Z,10.60
2019-03-15T17:18:34.144Z,9.57
2019-03-15T17:21:01.889Z,9.63
2019-03-15T17:23:29.977Z,10.40
2019-03-15T17:25:58.018Z,10.50
2019-03-15T17:28:25.905Z,10.00
2019-03-15T17:30:53.734Z,10.73
2019-03-15T17:33:21.860Z,9.90
2019-03-15T17:35:50.544Z,10.57
2019-03-15T17:38:18.568Z,10.10
2019-03-15T17:40:46.316Z,10.00
2019-03-15T17:43:14.310Z,10.13
2019-03-15T17:45:42.188Z,10.53
2019-03-15T17:48:10.243Z,9.87
2019-03-15T17:50:38.314Z,9.57
2019-03-15T17:53:06.219Z,9.40
2019-03-15T17:55:34.250Z,9.83
2019-03-15T17:58:01.959Z,10.00
2019-03-15T18:00:40.230Z,9.80
2019-03-15T18:03:19.857Z,9.40
2019-03-15T18:05:38.030Z,9.40
2019-03-15T18:08:06.282Z,9.30
2019-03-15T18:10:34.155Z,10.00
2019-03-15T18:13:02.015Z,9.57
2019-03-15T18:15:29.723Z,9.77
2019-03-15T18:17:59.978Z,9.67
2019-03-15T18:20:26.920Z,9.60
2019-03-15T18:22:55.550Z,9.10
2019-03-15T18:25:24.450Z,8.97
2019-03-15T18:27:52.429Z,9.57
2019-03-15T18:30:20.362Z,8.70
2019-03-15T18:32:48.278Z,9.30
2019-03-15T18:35:16.229Z,8.33
2019-03-15T18:37:44.004Z,9.10
2019-03-15T18:40:12.840Z,8.50
2019-03-15T18:42:41.334Z,9.43
2019-03-15T18:45:10.640Z,9.33
2019-03-15T18:47:38.414Z,8.93
2019-03-15T18:50:13.540Z,8.67
2019-03-15T18:52:41.330Z,8.60
2019-03-15T18:55:09.299Z,8.80
2019-03-15T18:57:37.549Z,8.60
2019-03-15T19:00:20.903Z,8.53
2019-03-15T19:02:49.451Z,8.60
2019-03-15T19:05:17.354Z,8.37
2019-03-15T19:07:45.179Z,8.47
2019-03-15T19:10:16.330Z,8.43
2019-03-15T19:12:45.219Z,7.90
2019-03-15T19:15:13.899Z,8.03
2019-03-15T19:17:41.783Z,8.40
2019-03-15T19:20:11.156Z,8.47
2019-03-15T19:22:39.158Z,8.03
2019-03-15T19:25:08.649Z,7.70
2019-03-15T19:27:36.669Z,8.30
2019-03-15T19:30:09.611Z,8.03
2019-03-15T19:32:37.579Z,8.00
2019-03-15T19:35:05.834Z,7.57
2019-03-15T19:37:34.587Z,7.90
2019-03-15T19:40:02.352Z,7.20
2019-03-15T19:42:30.039Z,6.60
2019-03-15T19:44:57.740Z,5.97
2019-03-15T19:47:26.039Z,6.23
2019-03-15T19:49:54.110Z,6.07
2019-03-15T19:52:21.953Z,5.93
2019-03-15T19:54:59.750Z,6.50
2019-03-15T19:57:19.139Z,5.90
2019-03-15T19:59:47.029Z,6.07
2019-03-15T20:02:15.665Z,5.97
2019-03-15T20:04:45.169Z,5.23
2019-03-15T20:07:13.084Z,6.60
2019-03-15T20:09:41.100Z,5.70
2019-03-15T20:12:09.018Z,5.73
2019-03-15T20:14:37.050Z,6.57
2019-03-15T20:17:04.919Z,5.73
2019-03-15T20:19:34.830Z,5.93
2019-03-15T20:22:03.660Z,5.15
2019-03-15T20:24:31.440Z,6.03
2019-03-15T20:26:59.289Z,5.47
2019-03-15T20:29:27.150Z,5.10
